sensor_id;sensor_type;location;lat;lon;timestamp;pressure;altitude;pressure_sealevel;temperature;humidity
52719;BME280;38616;42.140;24.760;2023-05-29T00:01:59;99238.34;;;18.50;75.17
52719;BME280;38616;42.140;24.760;2023-05-29T00:04:25;99239.50;;;18.61;74.58
52719;BME280;38616;42.140;24.760;2023-05-29T00:06:50;99227.44;;;18.66;74.11
52719;BME280;38616;42.140;24.760;2023-05-29T00:09:16;99242.84;;;18.55;74.29
52719;BME280;38616;42.140;24.760;2023-05-29T00:11:41;99241.09;;;18.50;74.63
52719;BME280;38616;42.140;24.760;2023-05-29T00:14:06;99244.03;;;18.33;74.78
52719;BME280;38616;42.140;24.760;2023-05-29T00:16:32;99241.19;;;18.29;75.03
52719;BME280;38616;42.140;24.760;2023-05-29T00:18:57;99249.28;;;17.92;76.09
52719;BME280;38616;42.140;24.760;2023-05-29T00:21:23;99245.63;;;17.87;76.65
52719;BME280;38616;42.140;24.760;2023-05-29T00:23:48;99247.63;;;17.66;77.10
52719;BME280;38616;42.140;24.760;2023-05-29T00:26:13;99236.78;;;17.48;77.89
52719;BME280;38616;42.140;24.760;2023-05-29T00:28:42;99238.22;;;17.46;77.63
52719;BME280;38616;42.140;24.760;2023-05-29T00:31:07;99232.28;;;17.65;77.77
52719;BME280;38616;42.140;24.760;2023-05-29T00:33:33;99230.91;;;17.71;77.74
52719;BME280;38616;42.140;24.760;2023-05-29T00:35:58;99229.75;;;17.93;76.86
52719;BME280;38616;42.140;24.760;2023-05-29T00:38:24;99232.00;;;18.25;75.75
52719;BME280;38616;42.140;24.760;2023-05-29T00:40:51;99240.13;;;18.21;75.44
52719;BME280;38616;42.140;24.760;2023-05-29T00:43:17;99232.72;;;18.34;75.45
52719;BME280;38616;42.140;24.760;2023-05-29T00:45:42;99224.00;;;18.32;75.03
52719;BME280;38616;42.140;24.760;2023-05-29T00:48:07;99234.88;;;18.28;75.27
52719;BME280;38616;42.140;24.760;2023-05-29T00:50:33;99232.28;;;17.98;77.14
52719;BME280;38616;42.140;24.760;2023-05-29T00:53:00;99224.66;;;18.16;76.45
52719;BME280;38616;42.140;24.760;2023-05-29T00:55:27;99222.84;;;18.21;76.50
52719;BME280;38616;42.140;24.760;2023-05-29T00:57:53;99218.50;;;18.32;76.13
52719;BME280;38616;42.140;24.760;2023-05-29T01:00:21;99218.94;;;18.22;76.09
52719;BME280;38616;42.140;24.760;2023-05-29T01:02:48;99222.91;;;17.99;77.69
52719;BME280;38616;42.140;24.760;2023-05-29T01:05:13;99231.81;;;17.63;78.23
52719;BME280;38616;42.140;24.760;2023-05-29T01:07:41;99228.72;;;17.64;79.04
52719;BME280;38616;42.140;24.760;2023-05-29T01:10:07;99220.59;;;17.68;78.95
52719;BME280;38616;42.140;24.760;2023-05-29T01:21:10;99218.00;;;17.50;78.36
52719;BME280;38616;42.140;24.760;2023-05-29T01:28:47;99214.03;;;18.27;74.10
52719;BME280;38616;42.140;24.760;2023-05-29T01:31:14;99212.72;;;18.00;74.83
52719;BME280;38616;42.140;24.760;2023-05-29T01:33:42;99210.69;;;18.09;74.95
52719;BME280;38616;42.140;24.760;2023-05-29T01:36:08;99210.44;;;18.02;74.86
52719;BME280;38616;42.140;24.760;2023-05-29T01:38:34;99212.66;;;17.87;74.55
52719;BME280;38616;42.140;24.760;2023-05-29T01:41:01;99215.78;;;17.65;75.33
52719;BME280;38616;42.140;24.760;2023-05-29T01:43:26;99213.47;;;17.54;75.59
52719;BME280;38616;42.140;24.760;2023-05-29T01:45:52;99211.72;;;17.50;75.14
52719;BME280;38616;42.140;24.760;2023-05-29T01:48:18;99215.53;;;17.57;75.02
52719;BME280;38616;42.140;24.760;2023-05-29T01:50:44;99223.25;;;17.43;74.45
52719;BME280;38616;42.140;24.760;2023-05-29T01:53:12;99211.25;;;17.26;75.37
52719;BME280;38616;42.140;24.760;2023-05-29T01:55:38;99211.72;;;17.50;74.80
52719;BME280;38616;42.140;24.760;2023-05-29T01:58:04;99216.78;;;17.60;74.89
52719;BME280;38616;42.140;24.760;2023-05-29T02:00:30;99219.34;;;17.44;74.62
52719;BME280;38616;42.140;24.760;2023-05-29T02:02:56;99218.41;;;17.40;74.59
52719;BME280;38616;42.140;24.760;2023-05-29T02:05:23;99225.72;;;17.36;74.69
52719;BME280;38616;42.140;24.760;2023-05-29T02:07:49;99216.53;;;17.32;75.09
52719;BME280;38616;42.140;24.760;2023-05-29T02:10:14;99223.16;;;17.52;74.53
52719;BME280;38616;42.140;24.760;2023-05-29T02:12:40;99214.34;;;17.80;73.85
52719;BME280;38616;42.140;24.760;2023-05-29T02:15:06;99226.47;;;17.79;73.68
52719;BME280;38616;42.140;24.760;2023-05-29T02:17:32;99225.88;;;17.73;73.32
52719;BME280;38616;42.140;24.760;2023-05-29T02:19:58;99223.63;;;17.87;73.46
52719;BME280;38616;42.140;24.760;2023-05-29T02:22:23;99224.72;;;17.62;73.37
52719;BME280;38616;42.140;24.760;2023-05-29T02:24:49;99228.66;;;17.52;74.37
52719;BME280;38616;42.140;24.760;2023-05-29T02:27:14;99219.69;;;17.64;73.98
52719;BME280;38616;42.140;24.760;2023-05-29T02:29:40;99221.91;;;17.49;74.67
52719;BME280;38616;42.140;24.760;2023-05-29T02:32:05;99226.44;;;17.24;75.03
52719;BME280;38616;42.140;24.760;2023-05-29T02:34:30;99221.66;;;17.21;75.51
52719;BME280;38616;42.140;24.760;2023-05-29T02:36:56;99231.78;;;17.41;74.88
52719;BME280;38616;42.140;24.760;2023-05-29T02:39:21;99229.25;;;17.57;74.05
52719;BME280;38616;42.140;24.760;2023-05-29T02:41:47;99233.31;;;17.72;73.93
52719;BME280;38616;42.140;24.760;2023-05-29T02:44:12;99235.47;;;17.67;73.68
52719;BME280;38616;42.140;24.760;2023-05-29T02:46:38;99227.81;;;17.72;73.38
52719;BME280;38616;42.140;24.760;2023-05-29T02:49:03;99226.75;;;17.86;73.41
52719;BME280;38616;42.140;24.760;2023-05-29T02:51:29;99226.44;;;17.66;73.45
52719;BME280;38616;42.140;24.760;2023-05-29T02:53:55;99230.91;;;17.71;74.18
52719;BME280;38616;42.140;24.760;2023-05-29T02:56:20;99228.63;;;17.73;73.65
52719;BME280;38616;42.140;24.760;2023-05-29T02:58:50;99229.66;;;17.68;73.78
52719;BME280;38616;42.140;24.760;2023-05-29T03:01:16;99239.66;;;17.85;73.54
52719;BME280;38616;42.140;24.760;2023-05-29T03:03:41;99238.97;;;18.10;72.94
52719;BME280;38616;42.140;24.760;2023-05-29T03:06:07;99240.59;;;18.23;72.89
52719;BME280;38616;42.140;24.760;2023-05-29T03:08:34;99242.47;;;18.44;72.21
52719;BME280;38616;42.140;24.760;2023-05-29T03:10:59;99243.84;;;18.50;71.63
52719;BME280;38616;42.140;24.760;2023-05-29T03:13:25;99244.88;;;18.33;72.35
52719;BME280;38616;42.140;24.760;2023-05-29T03:15:50;99243.50;;;18.39;72.65
52719;BME280;38616;42.140;24.760;2023-05-29T03:18:16;99247.25;;;18.35;72.78
52719;BME280;38616;42.140;24.760;2023-05-29T03:20:41;99242.91;;;18.46;72.70
52719;BME280;38616;42.140;24.760;2023-05-29T03:23:07;99250.63;;;18.53;72.32
52719;BME280;38616;42.140;24.760;2023-05-29T03:25:32;99253.13;;;18.45;72.48
52719;BME280;38616;42.140;24.760;2023-05-29T03:27:57;99252.78;;;18.47;72.51
52719;BME280;38616;42.140;24.760;2023-05-29T03:30:23;99253.91;;;18.34;72.92
52719;BME280;38616;42.140;24.760;2023-05-29T03:32:48;99252.44;;;18.36;72.83
52719;BME280;38616;42.140;24.760;2023-05-29T03:35:15;99256.31;;;18.35;72.89
52719;BME280;38616;42.140;24.760;2023-05-29T03:37:40;99256.78;;;18.37;73.03
52719;BME280;38616;42.140;24.760;2023-05-29T03:40:06;99251.31;;;18.50;72.50
52719;BME280;38616;42.140;24.760;2023-05-29T03:42:32;99260.03;;;18.52;72.53
52719;BME280;38616;42.140;24.760;2023-05-29T03:44:57;99266.19;;;18.49;72.61
52719;BME280;38616;42.140;24.760;2023-05-29T03:47:23;99262.16;;;18.46;72.63
52719;BME280;38616;42.140;24.760;2023-05-29T03:49:48;99256.78;;;18.37;73.13
52719;BME280;38616;42.140;24.760;2023-05-29T03:52:14;99256.03;;;18.15;73.07
52719;BME280;38616;42.140;24.760;2023-05-29T03:54:40;99263.81;;;18.13;73.65
52719;BME280;38616;42.140;24.760;2023-05-29T03:57:05;99258.13;;;18.19;73.43
52719;BME280;38616;42.140;24.760;2023-05-29T03:59:32;99263.44;;;18.36;72.74
52719;BME280;38616;42.140;24.760;2023-05-29T04:01:57;99267.56;;;18.42;72.56
52719;BME280;38616;42.140;24.760;2023-05-29T04:04:23;99266.19;;;18.49;71.45
52719;BME280;38616;42.140;24.760;2023-05-29T04:06:49;99281.09;;;18.01;72.24
52719;BME280;38616;42.140;24.760;2023-05-29T04:09:14;99276.53;;;18.06;72.49
52719;BME280;38616;42.140;24.760;2023-05-29T04:11:40;99274.78;;;18.01;71.59
52719;BME280;38616;42.140;24.760;2023-05-29T04:14:07;99275.25;;;18.03;72.00
52719;BME280;38616;42.140;24.760;2023-05-29T04:16:32;99279.63;;;18.16;71.51
52719;BME280;38616;42.140;24.760;2023-05-29T04:18:57;99281.34;;;18.09;71.84
52719;BME280;38616;42.140;24.760;2023-05-29T04:21:23;99281.97;;;18.27;71.33
52719;BME280;38616;42.140;24.760;2023-05-29T04:23:48;99280.09;;;18.19;70.25
52719;BME280;38616;42.140;24.760;2023-05-29T04:26:14;99292.28;;;18.30;70.78
52719;BME280;38616;42.140;24.760;2023-05-29T04:28:39;99288.28;;;18.40;70.75
52719;BME280;38616;42.140;24.760;2023-05-29T04:31:04;99293.91;;;18.56;70.31
52719;BME280;38616;42.140;24.760;2023-05-29T04:33:33;99296.22;;;18.54;69.12
52719;BME280;38616;42.140;24.760;2023-05-29T04:36:02;99303.19;;;18.51;69.95
52719;BME280;38616;42.140;24.760;2023-05-29T04:38:29;99308.72;;;18.51;70.39
52719;BME280;38616;42.140;24.760;2023-05-29T04:40:55;99304.13;;;18.09;70.87
52719;BME280;38616;42.140;24.760;2023-05-29T04:43:23;99309.97;;;18.41;70.56
52719;BME280;38616;42.140;24.760;2023-05-29T04:45:53;99308.13;;;18.12;70.61
52719;BME280;38616;42.140;24.760;2023-05-29T04:48:19;99315.00;;;18.06;70.93
52719;BME280;38616;42.140;24.760;2023-05-29T04:50:44;99308.69;;;18.05;71.30
52719;BME280;38616;42.140;24.760;2023-05-29T04:53:10;99308.28;;;17.94;71.70
52719;BME280;38616;42.140;24.760;2023-05-29T04:55:36;99304.81;;;17.85;72.07
52719;BME280;38616;42.140;24.760;2023-05-29T04:58:02;99314.13;;;17.71;72.98
52719;BME280;38616;42.140;24.760;2023-05-29T05:00:27;99317.81;;;17.54;73.93
52719;BME280;38616;42.140;24.760;2023-05-29T05:02:53;99321.00;;;17.35;74.55
52719;BME280;38616;42.140;24.760;2023-05-29T05:05:18;99322.88;;;17.43;74.68
52719;BME280;38616;42.140;24.760;2023-05-29T05:07:44;99333.75;;;17.61;74.41
52719;BME280;38616;42.140;24.760;2023-05-29T05:10:10;99325.91;;;17.72;74.00
52719;BME280;38616;42.140;24.760;2023-05-29T05:12:36;99329.19;;;17.44;73.68
52719;BME280;38616;42.140;24.760;2023-05-29T05:15:02;99324.25;;;17.58;73.49
52719;BME280;38616;42.140;24.760;2023-05-29T05:17:27;99326.56;;;17.69;72.14
52719;BME280;38616;42.140;24.760;2023-05-29T05:19:55;99330.88;;;17.79;71.44
52719;BME280;38616;42.140;24.760;2023-05-29T05:22:21;99327.47;;;17.82;71.54
52719;BME280;38616;42.140;24.760;2023-05-29T05:24:48;99336.44;;;17.91;70.87
52719;BME280;38616;42.140;24.760;2023-05-29T05:27:14;99339.16;;;17.70;71.20
52719;BME280;38616;42.140;24.760;2023-05-29T05:29:39;99336.09;;;17.71;70.76
52719;BME280;38616;42.140;24.760;2023-05-29T05:32:05;99337.81;;;17.76;70.41
52719;BME280;38616;42.140;24.760;2023-05-29T05:34:30;99331.72;;;18.13;70.22
52719;BME280;38616;42.140;24.760;2023-05-29T05:36:56;99334.66;;;18.29;69.06
52719;BME280;38616;42.140;24.760;2023-05-29T05:39:21;99343.28;;;18.40;68.47
52719;BME280;38616;42.140;24.760;2023-05-29T05:41:47;99340.31;;;17.90;69.10
52719;BME280;38616;42.140;24.760;2023-05-29T05:44:14;99349.34;;;17.91;69.83
52719;BME280;38616;42.140;24.760;2023-05-29T05:46:40;99352.91;;;17.91;69.90
52719;BME280;38616;42.140;24.760;2023-05-29T05:49:07;99353.25;;;18.11;69.68
52719;BME280;38616;42.140;24.760;2023-05-29T05:51:33;99350.22;;;18.25;69.03
52719;BME280;38616;42.140;24.760;2023-05-29T05:53:58;99348.31;;;18.38;68.99
52719;BME280;38616;42.140;24.760;2023-05-29T05:56:24;99349.00;;;18.35;68.86
52719;BME280;38616;42.140;24.760;2023-05-29T05:58:50;99343.06;;;18.45;68.78
52719;BME280;38616;42.140;24.760;2023-05-29T06:01:16;99355.97;;;18.78;68.41
52719;BME280;38616;42.140;24.760;2023-05-29T06:03:41;99346.88;;;18.99;67.56
52719;BME280;38616;42.140;24.760;2023-05-29T06:06:07;99347.16;;;18.85;67.71
52719;BME280;38616;42.140;24.760;2023-05-29T06:08:34;99342.78;;;18.84;68.39
52719;BME280;38616;42.140;24.760;2023-05-29T06:10:59;99339.22;;;18.71;68.20
52719;BME280;38616;42.140;24.760;2023-05-29T06:13:25;99346.00;;;18.73;68.18
52719;BME280;38616;42.140;24.760;2023-05-29T06:15:50;99338.00;;;18.93;67.63
52719;BME280;38616;42.140;24.760;2023-05-29T06:18:16;99341.44;;;18.90;66.79
52719;BME280;38616;42.140;24.760;2023-05-29T06:20:41;99336.34;;;18.67;67.35
52719;BME280;38616;42.140;24.760;2023-05-29T06:23:06;99342.38;;;18.48;67.61
52719;BME280;38616;42.140;24.760;2023-05-29T06:25:32;99344.00;;;18.49;67.84
52719;BME280;38616;42.140;24.760;2023-05-29T06:28:02;99342.69;;;18.80;67.97
52719;BME280;38616;42.140;24.760;2023-05-29T06:30:28;99347.19;;;18.97;67.15
52719;BME280;38616;42.140;24.760;2023-05-29T06:32:53;99353.00;;;18.83;66.73
52719;BME280;38616;42.140;24.760;2023-05-29T06:35:19;99354.31;;;18.98;66.69
52719;BME280;38616;42.140;24.760;2023-05-29T06:37:47;99351.03;;;18.71;67.42
52719;BME280;38616;42.140;24.760;2023-05-29T06:40:13;99357.75;;;19.08;67.32
52719;BME280;38616;42.140;24.760;2023-05-29T06:42:41;99356.94;;;19.44;66.57
52719;BME280;38616;42.140;24.760;2023-05-29T06:45:10;99349.94;;;19.88;65.26
52719;BME280;38616;42.140;24.760;2023-05-29T06:47:39;99350.34;;;19.74;65.07
52719;BME280;38616;42.140;24.760;2023-05-29T06:50:05;99341.41;;;19.64;64.92
52719;BME280;38616;42.140;24.760;2023-05-29T06:52:30;99350.09;;;19.79;65.10
52719;BME280;38616;42.140;24.760;2023-05-29T06:54:56;99351.94;;;19.75;64.74
52719;BME280;38616;42.140;24.760;2023-05-29T06:57:22;99360.75;;;19.27;65.37
52719;BME280;38616;42.140;24.760;2023-05-29T06:59:47;99354.19;;;19.19;66.04
52719;BME280;38616;42.140;24.760;2023-05-29T07:02:12;99354.78;;;19.38;66.34
52719;BME280;38616;42.140;24.760;2023-05-29T07:04:40;99345.94;;;19.85;65.49
52719;BME280;38616;42.140;24.760;2023-05-29T07:07:06;99345.09;;;20.10;63.91
52719;BME280;38616;42.140;24.760;2023-05-29T07:09:31;99351.91;;;20.28;63.26
52719;BME280;38616;42.140;24.760;2023-05-29T07:11:57;99353.91;;;20.15;62.68
52719;BME280;38616;42.140;24.760;2023-05-29T07:14:22;99350.94;;;19.67;62.98
52719;BME280;38616;42.140;24.760;2023-05-29T07:16:47;99352.84;;;19.79;63.50
52719;BME280;38616;42.140;24.760;2023-05-29T07:19:13;99351.94;;;19.75;63.80
52719;BME280;38616;42.140;24.760;2023-05-29T07:21:39;99357.03;;;19.48;64.22
52719;BME280;38616;42.140;24.760;2023-05-29T07:24:04;99366.72;;;19.42;64.18
52719;BME280;38616;42.140;24.760;2023-05-29T07:26:30;99356.75;;;19.78;63.92
52719;BME280;38616;42.140;24.760;2023-05-29T07:28:57;99363.09;;;19.66;64.40
52719;BME280;38616;42.140;24.760;2023-05-29T07:31:22;99360.81;;;19.56;62.98
52719;BME280;38616;42.140;24.760;2023-05-29T07:33:48;99366.19;;;19.77;62.82
52719;BME280;38616;42.140;24.760;2023-05-29T07:36:15;99356.28;;;19.88;62.46
52719;BME280;38616;42.140;24.760;2023-05-29T07:38:42;99353.31;;;20.22;62.30
52719;BME280;38616;42.140;24.760;2023-05-29T07:41:08;99358.72;;;20.18;61.76
52719;BME280;38616;42.140;24.760;2023-05-29T07:43:33;99361.81;;;20.17;62.02
52719;BME280;38616;42.140;24.760;2023-05-29T07:45:58;99365.31;;;20.58;61.48
52719;BME280;38616;42.140;24.760;2023-05-29T07:48:24;99363.00;;;20.60;60.32
52719;BME280;38616;42.140;24.760;2023-05-29T07:50:52;99363.25;;;20.55;61.65
52719;BME280;38616;42.140;24.760;2023-05-29T07:53:18;99362.78;;;20.81;60.62
52719;BME280;38616;42.140;24.760;2023-05-29T07:55:46;99366.88;;;21.04;60.28
52719;BME280;38616;42.140;24.760;2023-05-29T07:58:11;99363.91;;;20.64;60.70
52719;BME280;38616;42.140;24.760;2023-05-29T08:00:37;99372.44;;;20.75;60.23
52719;BME280;38616;42.140;24.760;2023-05-29T08:03:04;99368.34;;;20.69;60.12
52719;BME280;38616;42.140;24.760;2023-05-29T08:05:29;99370.44;;;21.04;60.41
52719;BME280;38616;42.140;24.760;2023-05-29T08:07:56;99354.66;;;21.21;60.21
52719;BME280;38616;42.140;24.760;2023-05-29T08:10:23;99359.63;;;21.31;58.97
52719;BME280;38616;42.140;24.760;2023-05-29T08:12:49;99352.47;;;21.10;58.73
52719;BME280;38616;42.140;24.760;2023-05-29T08:15:15;99359.00;;;21.22;59.01
52719;BME280;38616;42.140;24.760;2023-05-29T08:17:41;99362.06;;;21.17;59.36
52719;BME280;38616;42.140;24.760;2023-05-29T08:20:07;99362.41;;;21.15;58.31
52719;BME280;38616;42.140;24.760;2023-05-29T08:22:35;99359.63;;;20.67;59.73
52719;BME280;38616;42.140;24.760;2023-05-29T08:25:00;99357.00;;;20.42;60.89
52719;BME280;38616;42.140;24.760;2023-05-29T08:27:26;99359.09;;;20.33;60.97
52719;BME280;38616;42.140;24.760;2023-05-29T08:29:51;99356.47;;;20.52;60.83
52719;BME280;38616;42.140;24.760;2023-05-29T08:32:17;99361.88;;;20.77;59.97
52719;BME280;38616;42.140;24.760;2023-05-29T08:34:42;99353.34;;;21.15;59.19
52719;BME280;38616;42.140;24.760;2023-05-29T08:37:10;99340.38;;;21.35;58.25
52719;BME280;38616;42.140;24.760;2023-05-29T08:39:36;99342.88;;;21.40;57.29
52719;BME280;38616;42.140;24.760;2023-05-29T08:42:10;99348.84;;;21.78;57.45
52719;BME280;38616;42.140;24.760;2023-05-29T08:44:39;99340.34;;;21.87;57.28
52719;BME280;38616;42.140;24.760;2023-05-29T08:47:06;99332.19;;;21.94;56.17
52719;BME280;38616;42.140;24.760;2023-05-29T08:49:41;99324.75;;;22.18;56.01
52719;BME280;38616;42.140;24.760;2023-05-29T08:52:19;99328.59;;;22.33;55.54
52719;BME280;38616;42.140;24.760;2023-05-29T08:54:45;99320.59;;;22.47;55.11
52719;BME280;38616;42.140;24.760;2023-05-29T08:57:11;99327.69;;;22.68;53.84
52719;BME280;38616;42.140;24.760;2023-05-29T08:59:39;99325.91;;;22.79;53.20
52719;BME280;38616;42.140;24.760;2023-05-29T09:02:07;99323.78;;;22.49;53.06
52719;BME280;38616;42.140;24.760;2023-05-29T09:04:32;99317.09;;;22.73;53.15
52719;BME280;38616;42.140;24.760;2023-05-29T09:06:58;99322.88;;;22.88;52.50
52719;BME280;38616;42.140;24.760;2023-05-29T09:09:24;99332.22;;;22.56;52.45
52719;BME280;38616;42.140;24.760;2023-05-29T09:11:52;99331.84;;;21.95;53.56
52719;BME280;38616;42.140;24.760;2023-05-29T09:17:02;99330.38;;;21.82;53.13
52719;BME280;38616;42.140;24.760;2023-05-29T09:19:29;99334.72;;;21.63;52.80
52719;BME280;38616;42.140;24.760;2023-05-29T09:22:05;99335.34;;;21.92;53.25
52719;BME280;38616;42.140;24.760;2023-05-29T09:24:34;99325.97;;;22.20;53.57
52719;BME280;38616;42.140;24.760;2023-05-29T09:27:02;99332.69;;;22.19;53.83
52719;BME280;38616;42.140;24.760;2023-05-29T09:29:33;99328.09;;;22.27;52.70
52719;BME280;38616;42.140;24.760;2023-05-29T09:31:59;99327.00;;;22.32;51.55
52719;BME280;38616;42.140;24.760;2023-05-29T09:34:26;99334.06;;;22.29;51.81
52719;BME280;38616;42.140;24.760;2023-05-29T09:36:53;99336.66;;;21.98;50.91
52719;BME280;38616;42.140;24.760;2023-05-29T09:39:18;99335.91;;;22.02;51.48
52719;BME280;38616;42.140;24.760;2023-05-29T09:41:45;99340.63;;;21.81;53.23
52719;BME280;38616;42.140;24.760;2023-05-29T09:44:14;99337.41;;;21.60;53.97
52719;BME280;38616;42.140;24.760;2023-05-29T09:46:41;99330.09;;;22.07;53.84
52719;BME280;38616;42.140;24.760;2023-05-29T09:49:12;99330.34;;;22.21;53.21
52719;BME280;38616;42.140;24.760;2023-05-29T09:51:37;99324.22;;;22.32;52.45
52719;BME280;38616;42.140;24.760;2023-05-29T09:54:17;99315.78;;;22.24;50.79
52719;BME280;38616;42.140;24.760;2023-05-29T09:56:43;99313.31;;;22.19;52.17
52719;BME280;38616;42.140;24.760;2023-05-29T09:59:11;99313.97;;;22.52;50.99
52719;BME280;38616;42.140;24.760;2023-05-29T10:01:38;99304.81;;;22.48;51.97
52719;BME280;38616;42.140;24.760;2023-05-29T10:04:04;99300.34;;;22.66;51.73
52719;BME280;38616;42.140;24.760;2023-05-29T10:06:30;99301.28;;;22.74;50.76
52719;BME280;38616;42.140;24.760;2023-05-29T10:08:59;99297.59;;;22.90;50.12
52719;BME280;38616;42.140;24.760;2023-05-29T10:11:26;99300.56;;;23.04;50.65
52719;BME280;38616;42.140;24.760;2023-05-29T10:13:53;99296.59;;;23.05;50.72
52719;BME280;38616;42.140;24.760;2023-05-29T10:16:23;99293.44;;;22.33;50.89
52719;BME280;38616;42.140;24.760;2023-05-29T10:18:56;99291.38;;;22.73;51.25
52719;BME280;38616;42.140;24.760;2023-05-29T10:21:25;99291.91;;;23.09;50.13
52719;BME280;38616;42.140;24.760;2023-05-29T10:23:52;99293.72;;;22.71;47.95
52719;BME280;38616;42.140;24.760;2023-05-29T10:26:25;99285.91;;;23.03;48.21
52719;BME280;38616;42.140;24.760;2023-05-29T10:29:14;99278.81;;;23.06;47.58
52719;BME280;38616;42.140;24.760;2023-05-29T10:36:56;99275.75;;;23.38;47.77
52719;BME280;38616;42.140;24.760;2023-05-29T10:39:26;99268.44;;;22.99;47.83
52719;BME280;38616;42.140;24.760;2023-05-29T10:41:51;99264.47;;;23.24;48.24
52719;BME280;38616;42.140;24.760;2023-05-29T10:44:39;99275.47;;;22.93;47.73
52719;BME280;38616;42.140;24.760;2023-05-29T10:47:05;99266.25;;;23.12;48.06
52719;BME280;38616;42.140;24.760;2023-05-29T10:49:31;99277.69;;;22.84;48.52
52719;BME280;38616;42.140;24.760;2023-05-29T10:51:57;99268.28;;;22.88;49.35
52719;BME280;38616;42.140;24.760;2023-05-29T10:54:24;99271.44;;;23.14;49.33
52719;BME280;38616;42.140;24.760;2023-05-29T10:56:57;99270.19;;;23.11;48.37
52719;BME280;38616;42.140;24.760;2023-05-29T10:59:26;99271.53;;;22.94;48.33
52719;BME280;38616;42.140;24.760;2023-05-29T11:01:56;99265.63;;;23.23;47.57
52719;BME280;38616;42.140;24.760;2023-05-29T11:06:51;99268.84;;;23.25;48.12
52719;BME280;38616;42.140;24.760;2023-05-29T11:09:36;99263.34;;;23.28;47.97
52719;BME280;38616;42.140;24.760;2023-05-29T11:14:53;99257.56;;;23.71;47.42
52719;BME280;38616;42.140;24.760;2023-05-29T11:17:51;99256.50;;;23.83;47.46
52719;BME280;38616;42.140;24.760;2023-05-29T11:20:37;99258.81;;;24.12;47.04
52719;BME280;38616;42.140;24.760;2023-05-29T11:23:07;99256.09;;;24.19;47.19
52719;BME280;38616;42.140;24.760;2023-05-29T11:25:37;99249.53;;;24.38;46.74
52719;BME280;38616;42.140;24.760;2023-05-29T11:28:03;99251.66;;;24.52;46.56
52719;BME280;38616;42.140;24.760;2023-05-29T11:30:40;99242.50;;;24.48;46.41
52719;BME280;38616;42.140;24.760;2023-05-29T11:33:07;99240.19;;;24.57;46.82
52719;BME280;38616;42.140;24.760;2023-05-29T11:35:34;99238.34;;;24.72;46.49
52719;BME280;38616;42.140;24.760;2023-05-29T11:38:01;99240.97;;;24.54;46.14
52719;BME280;38616;42.140;24.760;2023-05-29T11:40:27;99243.13;;;24.30;45.10
52719;BME280;38616;42.140;24.760;2023-05-29T11:42:53;99241.97;;;23.97;46.64
52719;BME280;38616;42.140;24.760;2023-05-29T11:45:20;99244.31;;;23.91;47.16
52719;BME280;38616;42.140;24.760;2023-05-29T11:47:52;99241.63;;;23.65;46.93
52719;BME280;38616;42.140;24.760;2023-05-29T11:50:22;99234.53;;;23.67;46.21
52719;BME280;38616;42.140;24.760;2023-05-29T11:52:48;99242.16;;;23.43;46.79
52719;BME280;38616;42.140;24.760;2023-05-29T11:55:14;99220.13;;;23.92;45.85
52719;BME280;38616;42.140;24.760;2023-05-29T11:57:39;99214.41;;;24.08;45.64
52719;BME280;38616;42.140;24.760;2023-05-29T12:00:06;99216.59;;;23.95;46.06
52719;BME280;38616;42.140;24.760;2023-05-29T12:02:37;99213.56;;;23.36;47.98
52719;BME280;38616;42.140;24.760;2023-05-29T12:05:04;99208.38;;;23.34;48.26
52719;BME280;38616;42.140;24.760;2023-05-29T12:07:30;99205.59;;;23.03;48.60
52719;BME280;38616;42.140;24.760;2023-05-29T12:09:56;99198.38;;;23.26;48.51
52719;BME280;38616;42.140;24.760;2023-05-29T12:12:23;99202.97;;;23.14;47.68
52719;BME280;38616;42.140;24.760;2023-05-29T12:14:52;99204.16;;;23.78;46.85
52719;BME280;38616;42.140;24.760;2023-05-29T12:17:19;99202.09;;;23.71;47.11
52719;BME280;38616;42.140;24.760;2023-05-29T12:19:46;99201.84;;;23.84;46.34
52719;BME280;38616;42.140;24.760;2023-05-29T12:22:11;99204.97;;;23.79;46.43
52719;BME280;38616;42.140;24.760;2023-05-29T12:24:37;99210.81;;;24.08;45.58
52719;BME280;38616;42.140;24.760;2023-05-29T12:27:05;99212.81;;;24.07;46.21
52719;BME280;38616;42.140;24.760;2023-05-29T12:29:35;99212.19;;;24.28;46.55
52719;BME280;38616;42.140;24.760;2023-05-29T12:32:00;99211.63;;;24.57;45.79
52719;BME280;38616;42.140;24.760;2023-05-29T12:34:26;99206.00;;;24.49;45.29
52719;BME280;38616;42.140;24.760;2023-05-29T12:36:51;99202.16;;;24.61;46.21
52719;BME280;38616;42.140;24.760;2023-05-29T12:39:16;99194.34;;;24.74;45.94
52719;BME280;38616;42.140;24.760;2023-05-29T12:41:42;99198.72;;;24.79;44.87
52719;BME280;38616;42.140;24.760;2023-05-29T12:44:07;99193.34;;;24.52;44.33
52719;BME280;38616;42.140;24.760;2023-05-29T12:46:38;99198.19;;;24.62;44.08
52719;BME280;38616;42.140;24.760;2023-05-29T12:49:14;99198.44;;;24.43;44.38
52719;BME280;38616;42.140;24.760;2023-05-29T12:51:44;99193.44;;;23.76;45.74
52719;BME280;38616;42.140;24.760;2023-05-29T12:54:14;99187.16;;;23.80;46.22
52719;BME280;38616;42.140;24.760;2023-05-29T12:56:40;99183.75;;;23.59;46.91
52719;BME280;38616;42.140;24.760;2023-05-29T12:59:09;99186.09;;;23.57;46.79
52719;BME280;38616;42.140;24.760;2023-05-29T13:01:38;99185.31;;;23.57;46.78
52719;BME280;38616;42.140;24.760;2023-05-29T13:04:05;99189.09;;;23.41;47.24
52719;BME280;38616;42.140;24.760;2023-05-29T13:06:34;99187.16;;;23.83;47.05
52719;BME280;38616;42.140;24.760;2023-05-29T13:09:00;99188.31;;;23.44;47.01
52719;BME280;38616;42.140;24.760;2023-05-29T13:11:26;99186.56;;;23.63;46.65
52719;BME280;38616;42.140;24.760;2023-05-29T13:13:51;99180.25;;;23.66;46.47
52719;BME280;38616;42.140;24.760;2023-05-29T13:16:17;99184.88;;;23.55;46.41